• Join FlightAware (Why Join?)
  • Login
  • US Flag 
12:57AM EST


 

Airport Tracker/Info


-or-


 

Live Flight TrackerFlight Track Log ✈ ASH3732 ✈ 04-Jul-2013 ✈ KIAD - KALB

Flight Track Log - Related Links

Times and Time Zones

All times are in EDT time to prevent confusion due to time zone crossing. See the ASH3732 flight status page for this flight to view local times or setup timezone preferences in your user account.

Time Position Orientation Groundspeed Altitude Reporting Facility
EDT Latitude Longitude Course Direction KTS MPH feet Rate Location/Type
05:02PM 38.9500 -77.5000 North 177 204 1,600  Level Potomac TRACON
05:03PM 38.9833 -77.5667 303° West 247 284 3,100 2,280 Climbing Potomac TRACON
05:04PM 39.0500 -77.6333 322° Northwest 282 325 6,200 2,880 Climbing Potomac TRACON
05:05PM 39.4242 -77.4500 North  Level FlightAware Approximate
05:05PM 39.1333 -77.6167 North 308 354 8,900  Level Potomac TRACON
05:06PM 39.5469 -77.4500 North  Level FlightAware Approximate
05:06PM 39.2167 -77.6000 North 321 369 11,500  Level Potomac TRACON
05:07PM 39.6697 -77.4500 North  Level FlightAware Approximate
05:08PM 39.4067 -77.5147 19° North 335 386 16,800  Level Washington Center
05:09PM 39.5028 -77.4903 11° North 340 391 18,600 1,680 Climbing Washington Center
05:11PM 39.6436 -77.4361 16° North 348 400 21,100 1,620 Climbing New York Center
05:12PM 39.7444 -77.3861 21° North 361 415 22,800 1,260 Climbing New York Center
05:13PM 39.8497 -77.3339 21° North 383 441 23,700 1,140 Climbing New York Center
05:14PM 39.9611 -77.2767 21° North 402 463 25,200 1,320 Climbing New York Center
05:15PM 40.0747 -77.2194 21° North 423 487 26,400 1,200 Climbing New York Center
05:16PM 40.2033 -77.1550 21° North 435 501 27,600 1,200 Climbing New York Center
05:17PM 40.3214 -77.0953 21° North 445 512 28,900 1,260 Climbing New York Center
05:18PM 40.4433 -77.0356 20° North 450 518 30,200 1,020 Climbing New York Center
05:19PM 40.5633 -76.9725 22° Northeast 455 524 31,000 360 Climbing New York Center
05:20PM 40.6897 -76.9072 21° North 468 539 31,000  Level New York Center
05:21PM 40.8225 -76.8397 21° North 482 555 31,000  Level New York Center
05:22PM 40.9506 -76.7769 20° North 488 562 31,000 -540 Level New York Center
05:23PM 41.0769 -76.7111 21° North 488 562 30,000 -1,020 Descending New York Center
05:24PM 41.2053 -76.6450 21° North 483 556 29,000 -540 Descending New York Center
05:25PM 41.3356 -76.5789 21° North 483 556 29,000  Level New York Center
05:26PM 41.4703 -76.5075 22° Northeast 493 567 29,000  Level New York Center
05:27PM 41.6028 -76.4358 22° Northeast 503 579 29,000  Level New York Center
05:28PM 41.7292 -76.3658 22° Northeast 501 577 29,000 -120 Level New York Center
05:29PM 41.8594 -76.2961 22° Northeast 501 577 28,800 -1,380 Descending New York Center
05:30PM 42.1056 -76.1678 21° North 511 588 25,200 -1,740 Descending Boston Center
05:31PM 42.1975 -76.0389 46° Northeast 480 552 24,000 -600 Descending Boston Center
05:32PM 42.2503 -75.8792 66° East 444 511 24,000  Level Boston Center
05:33PM 42.2961 -75.7411 66° East 449 517 24,000  Level Boston Center
05:34PM 42.3528 -75.5811 64° Northeast 455 524 24,000  Level Boston Center
05:35PM 42.3947 -75.4147 71° East 460 529 24,000 -360 Level Boston Center
05:36PM 42.4344 -75.2450 72° East 460 529 23,300 -1,740 Descending Boston Center
05:37PM 42.4697 -75.0831 73° East 455 524 20,600 -2,760 Descending Boston Center
05:38PM 42.5044 -74.9269 73° East 445 512 17,800 -2,760 Descending Boston Center
05:39PM 42.5367 -74.7789 73° East 421 484 15,100 -2,700 Descending Boston Center
05:40PM 42.5667 -74.6419 73° East 388 447 12,900 -2,280 Descending Boston Center
05:41PM 42.5983 -74.5103 72° East 364 419 10,900 -1,620 Descending Boston Center
05:42PM 42.6233 -74.3900 74° East 329 379 9,700 -1,380 Descending Boston Center
05:43PM 42.6461 -74.2750 75° East 308 354 8,100 -1,740 Descending Boston Center
05:44PM 42.6728 -74.1683 71° East 300 345 6,300 -1,500 Descending Boston Center
05:45PM 42.7158 -74.0733 58° Northeast 287 330 5,100 -600 Descending Boston Center
05:46PM 42.7856 -74.0186 30° Northeast 291 335 5,100 -360 Level Boston Center
05:47PM 42.8608 -73.9981 11° North 279 321 4,400 -900 Descending Boston Center
05:48PM 42.9378 -74.0000 359° North 268 308 3,400 -720 Descending Boston Center
05:49PM 42.9639 -73.9183 66° East 194 223 2,900 -660 Descending Boston Center
05:50PM 42.9461 -73.8414 107° East 220 253 2,100 -420 Descending Boston Center
05:51PM 42.8944 -73.8117 157° South 206 237 2,100  Level Boston Center